Lookout Hill, Australia
Current Conditions -  °F | °C
As of 6:00 PM on Sunday 23 Nov 2014 (Local Time) from YMAV Reporting Station
Clear Clear  
Wind Chill: 66°   Ceiling: Unl
Heat Index: 66°   Visibility: 6mi
Dew Point: 50°   Wind: 15mph
Humidity: 56%   Direction: 170°S
Pressure: 29.88"   Gusts: NA
Location:  37.28°S, 143.25°E
Report Text: YMAV 230700Z AUTO 17013KT 9999 // NCD 19/10 Q1012
Loading
Personal Weather Stations






























Interactive Weather Map New forecast layout! Learn more

10-Day Weather Forecast

Advertisements
Track Severe Weather on mobile